sensor_id;sensor_type;location;lat;lon;timestamp;temperature;humidity
51476;DHT22;37554;50.362;7.568;2023-08-20T00:01:14;26.20;75.20
51476;DHT22;37554;50.362;7.568;2023-08-20T00:03:44;26.20;75.30
51476;DHT22;37554;50.362;7.568;2023-08-20T00:06:11;26.20;75.20
51476;DHT22;37554;50.362;7.568;2023-08-20T00:08:37;26.20;75.30
51476;DHT22;37554;50.362;7.568;2023-08-20T00:11:03;26.10;75.30
51476;DHT22;37554;50.362;7.568;2023-08-20T00:13:31;26.10;75.40
51476;DHT22;37554;50.362;7.568;2023-08-20T00:15:56;26.10;75.50
51476;DHT22;37554;50.362;7.568;2023-08-20T00:18:22;26.10;75.60
51476;DHT22;37554;50.362;7.568;2023-08-20T00:20:48;26.10;75.60
51476;DHT22;37554;50.362;7.568;2023-08-20T00:23:14;26.00;75.50
51476;DHT22;37554;50.362;7.568;2023-08-20T00:25:40;26.10;75.60
51476;DHT22;37554;50.362;7.568;2023-08-20T00:28:06;26.10;75.50
51476;DHT22;37554;50.362;7.568;2023-08-20T00:30:31;26.00;75.50
51476;DHT22;37554;50.362;7.568;2023-08-20T00:32:57;26.00;75.50
51476;DHT22;37554;50.362;7.568;2023-08-20T00:35:23;26.00;75.40
51476;DHT22;37554;50.362;7.568;2023-08-20T00:37:48;26.00;75.40
51476;DHT22;37554;50.362;7.568;2023-08-20T00:40:14;26.00;75.40
51476;DHT22;37554;50.362;7.568;2023-08-20T00:42:40;26.00;75.40
51476;DHT22;37554;50.362;7.568;2023-08-20T00:45:05;26.00;75.40
51476;DHT22;37554;50.362;7.568;2023-08-20T00:47:31;26.00;75.50
51476;DHT22;37554;50.362;7.568;2023-08-20T00:49:57;26.00;75.50
51476;DHT22;37554;50.362;7.568;2023-08-20T00:52:23;25.90;75.40
51476;DHT22;37554;50.362;7.568;2023-08-20T00:54:50;25.90;76.10
51476;DHT22;37554;50.362;7.568;2023-08-20T00:57:20;25.90;75.50
51476;DHT22;37554;50.362;7.568;2023-08-20T00:59:48;25.90;75.50
51476;DHT22;37554;50.362;7.568;2023-08-20T01:02:15;25.90;75.50
51476;DHT22;37554;50.362;7.568;2023-08-20T01:04:41;25.90;75.60
51476;DHT22;37554;50.362;7.568;2023-08-20T01:09:48;25.80;75.60
51476;DHT22;37554;50.362;7.568;2023-08-20T01:12:16;25.80;75.70
51476;DHT22;37554;50.362;7.568;2023-08-20T01:14:43;25.80;75.60
51476;DHT22;37554;50.362;7.568;2023-08-20T01:17:09;25.80;75.50
51476;DHT22;37554;50.362;7.568;2023-08-20T01:19:34;25.80;75.50
51476;DHT22;37554;50.362;7.568;2023-08-20T01:27:43;25.70;75.40
51476;DHT22;37554;50.362;7.568;2023-08-20T01:30:12;25.70;75.40
51476;DHT22;37554;50.362;7.568;2023-08-20T01:32:39;25.70;75.40
51476;DHT22;37554;50.362;7.568;2023-08-20T01:35:14;25.70;75.40
51476;DHT22;37554;50.362;7.568;2023-08-20T01:37:41;25.70;75.50
51476;DHT22;37554;50.362;7.568;2023-08-20T01:40:08;25.70;75.50
51476;DHT22;37554;50.362;7.568;2023-08-20T01:42:39;25.70;75.50
51476;DHT22;37554;50.362;7.568;2023-08-20T01:45:06;25.70;75.50
51476;DHT22;37554;50.362;7.568;2023-08-20T01:47:32;25.60;75.50
51476;DHT22;37554;50.362;7.568;2023-08-20T01:49:58;25.60;75.50
51476;DHT22;37554;50.362;7.568;2023-08-20T01:52:24;25.70;75.70
51476;DHT22;37554;50.362;7.568;2023-08-20T01:54:50;25.60;75.70
51476;DHT22;37554;50.362;7.568;2023-08-20T01:57:15;25.60;75.80
51476;DHT22;37554;50.362;7.568;2023-08-20T01:59:41;25.60;75.90
51476;DHT22;37554;50.362;7.568;2023-08-20T02:02:07;25.50;75.80
51476;DHT22;37554;50.362;7.568;2023-08-20T02:04:33;25.50;75.80
51476;DHT22;37554;50.362;7.568;2023-08-20T02:06:59;25.50;75.90
51476;DHT22;37554;50.362;7.568;2023-08-20T02:09:24;25.50;75.90
51476;DHT22;37554;50.362;7.568;2023-08-20T02:11:51;25.50;76.00
51476;DHT22;37554;50.362;7.568;2023-08-20T02:14:16;25.50;76.10
51476;DHT22;37554;50.362;7.568;2023-08-20T02:16:42;25.50;76.10
51476;DHT22;37554;50.362;7.568;2023-08-20T02:19:08;25.50;76.20
51476;DHT22;37554;50.362;7.568;2023-08-20T02:21:34;25.50;76.20
51476;DHT22;37554;50.362;7.568;2023-08-20T02:23:59;25.50;76.30
51476;DHT22;37554;50.362;7.568;2023-08-20T02:26:25;25.50;76.40
51476;DHT22;37554;50.362;7.568;2023-08-20T02:28:51;25.50;76.50
51476;DHT22;37554;50.362;7.568;2023-08-20T02:31:17;25.50;76.50
51476;DHT22;37554;50.362;7.568;2023-08-20T02:33:42;25.50;76.50
51476;DHT22;37554;50.362;7.568;2023-08-20T02:36:08;25.50;76.60
51476;DHT22;37554;50.362;7.568;2023-08-20T02:38:34;25.50;76.60
51476;DHT22;37554;50.362;7.568;2023-08-20T02:41:01;25.50;76.70
51476;DHT22;37554;50.362;7.568;2023-08-20T02:43:28;25.40;76.70
51476;DHT22;37554;50.362;7.568;2023-08-20T02:45:54;25.50;76.80
51476;DHT22;37554;50.362;7.568;2023-08-20T02:48:20;25.40;76.80
51476;DHT22;37554;50.362;7.568;2023-08-20T02:50:46;25.40;76.90
51476;DHT22;37554;50.362;7.568;2023-08-20T02:53:12;25.40;76.90
51476;DHT22;37554;50.362;7.568;2023-08-20T02:55:37;25.40;76.90
51476;DHT22;37554;50.362;7.568;2023-08-20T02:58:03;25.50;77.00
51476;DHT22;37554;50.362;7.568;2023-08-20T03:00:30;25.40;76.90
51476;DHT22;37554;50.362;7.568;2023-08-20T03:02:56;25.40;76.90
51476;DHT22;37554;50.362;7.568;2023-08-20T03:05:22;25.40;77.00
51476;DHT22;37554;50.362;7.568;2023-08-20T03:07:48;25.40;76.90
51476;DHT22;37554;50.362;7.568;2023-08-20T03:10:14;25.40;77.00
51476;DHT22;37554;50.362;7.568;2023-08-20T03:12:40;25.40;77.10
51476;DHT22;37554;50.362;7.568;2023-08-20T03:15:07;25.40;77.10
51476;DHT22;37554;50.362;7.568;2023-08-20T03:17:32;25.40;77.10
51476;DHT22;37554;50.362;7.568;2023-08-20T03:19:59;25.40;77.20
51476;DHT22;37554;50.362;7.568;2023-08-20T03:22:26;25.40;77.30
51476;DHT22;37554;50.362;7.568;2023-08-20T03:24:53;25.40;77.40
51476;DHT22;37554;50.362;7.568;2023-08-20T03:27:19;25.40;77.50
51476;DHT22;37554;50.362;7.568;2023-08-20T03:29:45;25.30;77.50
51476;DHT22;37554;50.362;7.568;2023-08-20T03:32:11;25.30;77.60
51476;DHT22;37554;50.362;7.568;2023-08-20T03:34:36;25.30;77.70
51476;DHT22;37554;50.362;7.568;2023-08-20T03:37:03;25.30;77.70
51476;DHT22;37554;50.362;7.568;2023-08-20T03:39:29;25.30;77.70
51476;DHT22;37554;50.362;7.568;2023-08-20T03:41:55;25.30;77.70
51476;DHT22;37554;50.362;7.568;2023-08-20T03:44:21;25.30;77.70
51476;DHT22;37554;50.362;7.568;2023-08-20T03:46:46;25.30;78.30
51476;DHT22;37554;50.362;7.568;2023-08-20T03:49:13;25.30;77.60
51476;DHT22;37554;50.362;7.568;2023-08-20T03:51:38;25.30;77.50
51476;DHT22;37554;50.362;7.568;2023-08-20T03:54:04;25.30;77.60
51476;DHT22;37554;50.362;7.568;2023-08-20T03:56:30;25.30;77.50
51476;DHT22;37554;50.362;7.568;2023-08-20T03:58:55;25.30;77.50
51476;DHT22;37554;50.362;7.568;2023-08-20T04:01:21;25.20;77.40
51476;DHT22;37554;50.362;7.568;2023-08-20T04:03:47;25.30;77.50
51476;DHT22;37554;50.362;7.568;2023-08-20T04:06:14;25.30;77.50
51476;DHT22;37554;50.362;7.568;2023-08-20T04:08:40;25.30;77.40
51476;DHT22;37554;50.362;7.568;2023-08-20T04:11:06;25.30;77.50
51476;DHT22;37554;50.362;7.568;2023-08-20T04:13:31;25.30;77.60
51476;DHT22;37554;50.362;7.568;2023-08-20T04:15:57;25.30;77.70
51476;DHT22;37554;50.362;7.568;2023-08-20T04:18:23;25.30;77.80
51476;DHT22;37554;50.362;7.568;2023-08-20T04:20:51;25.20;77.80
51476;DHT22;37554;50.362;7.568;2023-08-20T04:23:17;25.20;77.90
51476;DHT22;37554;50.362;7.568;2023-08-20T04:25:42;25.20;78.10
51476;DHT22;37554;50.362;7.568;2023-08-20T04:28:09;25.20;78.10
51476;DHT22;37554;50.362;7.568;2023-08-20T04:30:35;25.20;78.20
51476;DHT22;37554;50.362;7.568;2023-08-20T04:33:02;25.20;78.40
51476;DHT22;37554;50.362;7.568;2023-08-20T04:35:27;25.20;78.50
51476;DHT22;37554;50.362;7.568;2023-08-20T04:37:53;25.20;78.50
51476;DHT22;37554;50.362;7.568;2023-08-20T04:40:19;25.20;78.70
51476;DHT22;37554;50.362;7.568;2023-08-20T04:42:44;25.20;78.70
51476;DHT22;37554;50.362;7.568;2023-08-20T04:45:10;25.20;78.70
51476;DHT22;37554;50.362;7.568;2023-08-20T04:47:39;25.20;78.70
51476;DHT22;37554;50.362;7.568;2023-08-20T04:50:05;25.20;79.30
51476;DHT22;37554;50.362;7.568;2023-08-20T04:52:34;25.20;78.70
51476;DHT22;37554;50.362;7.568;2023-08-20T04:55:01;25.20;78.60
51476;DHT22;37554;50.362;7.568;2023-08-20T04:57:27;25.20;78.70
51476;DHT22;37554;50.362;7.568;2023-08-20T04:59:53;25.20;78.70
51476;DHT22;37554;50.362;7.568;2023-08-20T05:02:18;25.20;78.80
51476;DHT22;37554;50.362;7.568;2023-08-20T05:04:44;25.20;78.90
51476;DHT22;37554;50.362;7.568;2023-08-20T05:07:10;25.20;79.00
51476;DHT22;37554;50.362;7.568;2023-08-20T05:09:35;25.20;79.10
51476;DHT22;37554;50.362;7.568;2023-08-20T05:12:01;25.20;79.10
51476;DHT22;37554;50.362;7.568;2023-08-20T05:14:28;25.20;79.10
51476;DHT22;37554;50.362;7.568;2023-08-20T05:16:54;25.10;79.60
51476;DHT22;37554;50.362;7.568;2023-08-20T05:19:20;25.00;80.20
51476;DHT22;37554;50.362;7.568;2023-08-20T05:21:45;24.90;80.70
51476;DHT22;37554;50.362;7.568;2023-08-20T05:24:11;24.70;81.40
51476;DHT22;37554;50.362;7.568;2023-08-20T05:26:36;24.70;81.70
51476;DHT22;37554;50.362;7.568;2023-08-20T05:29:02;24.70;81.80
51476;DHT22;37554;50.362;7.568;2023-08-20T05:31:28;24.60;82.00
51476;DHT22;37554;50.362;7.568;2023-08-20T05:33:53;24.60;82.10
51476;DHT22;37554;50.362;7.568;2023-08-20T05:36:19;24.50;82.20
51476;DHT22;37554;50.362;7.568;2023-08-20T05:38:45;24.50;82.40
51476;DHT22;37554;50.362;7.568;2023-08-20T05:41:10;24.40;82.60
51476;DHT22;37554;50.362;7.568;2023-08-20T05:43:36;24.40;82.70
51476;DHT22;37554;50.362;7.568;2023-08-20T05:46:02;24.30;83.00
51476;DHT22;37554;50.362;7.568;2023-08-20T05:48:28;24.30;83.20
51476;DHT22;37554;50.362;7.568;2023-08-20T05:50:55;24.20;83.30
51476;DHT22;37554;50.362;7.568;2023-08-20T05:53:24;24.20;84.00
51476;DHT22;37554;50.362;7.568;2023-08-20T05:55:50;24.10;84.40
51476;DHT22;37554;50.362;7.568;2023-08-20T05:58:15;24.10;84.80
51476;DHT22;37554;50.362;7.568;2023-08-20T06:00:41;24.10;85.00
51476;DHT22;37554;50.362;7.568;2023-08-20T06:03:07;24.10;85.30
51476;DHT22;37554;50.362;7.568;2023-08-20T06:05:36;24.10;85.40
51476;DHT22;37554;50.362;7.568;2023-08-20T06:08:02;24.20;85.40
51476;DHT22;37554;50.362;7.568;2023-08-20T06:10:28;24.20;85.40
51476;DHT22;37554;50.362;7.568;2023-08-20T06:12:53;24.20;85.20
51476;DHT22;37554;50.362;7.568;2023-08-20T06:15:19;24.20;85.10
51476;DHT22;37554;50.362;7.568;2023-08-20T06:17:45;24.20;85.00
51476;DHT22;37554;50.362;7.568;2023-08-20T06:20:11;24.20;85.60
51476;DHT22;37554;50.362;7.568;2023-08-20T06:22:37;24.20;85.80
51476;DHT22;37554;50.362;7.568;2023-08-20T06:25:04;24.10;85.80
51476;DHT22;37554;50.362;7.568;2023-08-20T06:27:30;24.10;85.90
51476;DHT22;37554;50.362;7.568;2023-08-20T06:29:56;24.10;86.10
51476;DHT22;37554;50.362;7.568;2023-08-20T06:32:22;24.10;86.30
51476;DHT22;37554;50.362;7.568;2023-08-20T06:34:48;24.10;86.70
51476;DHT22;37554;50.362;7.568;2023-08-20T06:37:14;24.10;86.70
51476;DHT22;37554;50.362;7.568;2023-08-20T06:39:39;24.10;86.80
51476;DHT22;37554;50.362;7.568;2023-08-20T06:42:05;24.10;86.80
51476;DHT22;37554;50.362;7.568;2023-08-20T06:44:31;24.20;87.10
51476;DHT22;37554;50.362;7.568;2023-08-20T06:46:56;24.20;86.50
51476;DHT22;37554;50.362;7.568;2023-08-20T06:49:22;24.20;86.20
51476;DHT22;37554;50.362;7.568;2023-08-20T06:51:48;24.20;86.50
51476;DHT22;37554;50.362;7.568;2023-08-20T06:54:14;24.20;86.50
51476;DHT22;37554;50.362;7.568;2023-08-20T06:56:41;24.30;86.20
51476;DHT22;37554;50.362;7.568;2023-08-20T06:59:06;24.30;86.00
51476;DHT22;37554;50.362;7.568;2023-08-20T07:01:32;24.30;85.70
51476;DHT22;37554;50.362;7.568;2023-08-20T07:03:58;24.30;85.50
51476;DHT22;37554;50.362;7.568;2023-08-20T07:06:23;24.40;85.40
51476;DHT22;37554;50.362;7.568;2023-08-20T07:08:49;24.40;85.20
51476;DHT22;37554;50.362;7.568;2023-08-20T07:11:15;24.40;85.30
51476;DHT22;37554;50.362;7.568;2023-08-20T07:13:41;24.40;85.00
51476;DHT22;37554;50.362;7.568;2023-08-20T07:16:07;24.50;84.40
51476;DHT22;37554;50.362;7.568;2023-08-20T07:18:32;24.50;84.00
51476;DHT22;37554;50.362;7.568;2023-08-20T07:20:58;24.60;83.80
51476;DHT22;37554;50.362;7.568;2023-08-20T07:23:24;24.70;83.60
51476;DHT22;37554;50.362;7.568;2023-08-20T07:25:49;24.70;83.30
51476;DHT22;37554;50.362;7.568;2023-08-20T07:28:17;24.70;82.90
51476;DHT22;37554;50.362;7.568;2023-08-20T07:30:52;24.70;82.80
51476;DHT22;37554;50.362;7.568;2023-08-20T07:33:17;24.80;82.70
51476;DHT22;37554;50.362;7.568;2023-08-20T07:35:43;24.90;82.40
51476;DHT22;37554;50.362;7.568;2023-08-20T07:38:08;24.90;82.20
51476;DHT22;37554;50.362;7.568;2023-08-20T07:40:34;24.90;82.10
51476;DHT22;37554;50.362;7.568;2023-08-20T07:43:00;25.00;81.70
51476;DHT22;37554;50.362;7.568;2023-08-20T07:45:25;25.00;81.30
51476;DHT22;37554;50.362;7.568;2023-08-20T07:47:51;25.00;81.00
51476;DHT22;37554;50.362;7.568;2023-08-20T07:50:16;24.90;81.00
51476;DHT22;37554;50.362;7.568;2023-08-20T07:52:42;25.00;81.10
51476;DHT22;37554;50.362;7.568;2023-08-20T07:55:08;25.00;80.90
51476;DHT22;37554;50.362;7.568;2023-08-20T07:57:33;25.00;81.10
51476;DHT22;37554;50.362;7.568;2023-08-20T07:59:59;25.10;81.10
51476;DHT22;37554;50.362;7.568;2023-08-20T08:02:25;25.10;81.00
51476;DHT22;37554;50.362;7.568;2023-08-20T08:04:50;25.30;80.70
51476;DHT22;37554;50.362;7.568;2023-08-20T08:07:16;25.50;80.20
51476;DHT22;37554;50.362;7.568;2023-08-20T08:09:42;25.70;79.50
51476;DHT22;37554;50.362;7.568;2023-08-20T08:12:07;26.00;78.90
51476;DHT22;37554;50.362;7.568;2023-08-20T08:14:33;26.20;78.20
51476;DHT22;37554;50.362;7.568;2023-08-20T08:16:59;26.40;77.40
51476;DHT22;37554;50.362;7.568;2023-08-20T08:19:24;26.60;76.70
51476;DHT22;37554;50.362;7.568;2023-08-20T08:21:50;26.90;76.10
51476;DHT22;37554;50.362;7.568;2023-08-20T08:24:15;27.00;75.40
51476;DHT22;37554;50.362;7.568;2023-08-20T08:26:41;27.20;74.80
51476;DHT22;37554;50.362;7.568;2023-08-20T08:29:08;27.40;74.20
51476;DHT22;37554;50.362;7.568;2023-08-20T08:31:34;27.60;73.60
51476;DHT22;37554;50.362;7.568;2023-08-20T08:34:02;27.80;72.90
51476;DHT22;37554;50.362;7.568;2023-08-20T08:36:28;28.00;72.30
51476;DHT22;37554;50.362;7.568;2023-08-20T08:38:54;28.10;71.70
51476;DHT22;37554;50.362;7.568;2023-08-20T08:41:22;28.30;71.30
51476;DHT22;37554;50.362;7.568;2023-08-20T08:43:51;28.50;70.80
51476;DHT22;37554;50.362;7.568;2023-08-20T08:46:17;28.60;70.30
51476;DHT22;37554;50.362;7.568;2023-08-20T08:48:44;28.80;70.00
51476;DHT22;37554;50.362;7.568;2023-08-20T08:51:14;28.90;69.40
51476;DHT22;37554;50.362;7.568;2023-08-20T08:53:42;29.10;69.00
51476;DHT22;37554;50.362;7.568;2023-08-20T08:56:08;29.20;68.50
51476;DHT22;37554;50.362;7.568;2023-08-20T08:58:34;29.40;68.30
51476;DHT22;37554;50.362;7.568;2023-08-20T09:00:59;29.60;67.80
51476;DHT22;37554;50.362;7.568;2023-08-20T09:03:25;29.80;67.40
51476;DHT22;37554;50.362;7.568;2023-08-20T09:05:55;29.90;67.00
51476;DHT22;37554;50.362;7.568;2023-08-20T09:08:25;30.10;66.30
51476;DHT22;37554;50.362;7.568;2023-08-20T09:10:53;30.30;65.80
51476;DHT22;37554;50.362;7.568;2023-08-20T09:13:26;30.50;65.20
51476;DHT22;37554;50.362;7.568;2023-08-20T09:15:57;30.60;64.60
51476;DHT22;37554;50.362;7.568;2023-08-20T09:18:23;30.40;64.40
51476;DHT22;37554;50.362;7.568;2023-08-20T09:20:49;30.00;64.40
51476;DHT22;37554;50.362;7.568;2023-08-20T09:23:15;29.80;64.80
51476;DHT22;37554;50.362;7.568;2023-08-20T09:25:42;29.70;65.20
51476;DHT22;37554;50.362;7.568;2023-08-20T09:28:08;29.70;65.90
51476;DHT22;37554;50.362;7.568;2023-08-20T09:30:34;29.70;65.50
51476;DHT22;37554;50.362;7.568;2023-08-20T09:33:04;29.60;65.50
51476;DHT22;37554;50.362;7.568;2023-08-20T09:35:30;29.50;65.90
51476;DHT22;37554;50.362;7.568;2023-08-20T09:38:00;29.60;66.20
51476;DHT22;37554;50.362;7.568;2023-08-20T09:40:27;29.70;66.00
51476;DHT22;37554;50.362;7.568;2023-08-20T09:42:54;29.80;65.60
51476;DHT22;37554;50.362;7.568;2023-08-20T09:45:20;29.80;65.00
51476;DHT22;37554;50.362;7.568;2023-08-20T09:47:48;29.90;65.20
51476;DHT22;37554;50.362;7.568;2023-08-20T09:50:17;29.90;65.00
51476;DHT22;37554;50.362;7.568;2023-08-20T09:53:12;30.10;65.10
51476;DHT22;37554;50.362;7.568;2023-08-20T09:55:41;30.20;64.70
51476;DHT22;37554;50.362;7.568;2023-08-20T09:58:07;30.30;64.60
51476;DHT22;37554;50.362;7.568;2023-08-20T10:00:33;30.40;64.40
51476;DHT22;37554;50.362;7.568;2023-08-20T10:03:00;30.60;64.20
51476;DHT22;37554;50.362;7.568;2023-08-20T10:05:26;30.60;63.80
51476;DHT22;37554;50.362;7.568;2023-08-20T10:07:52;30.70;63.60
51476;DHT22;37554;50.362;7.568;2023-08-20T10:10:20;30.70;63.10
51476;DHT22;37554;50.362;7.568;2023-08-20T10:12:45;30.70;62.90
51476;DHT22;37554;50.362;7.568;2023-08-20T10:15:15;30.80;62.80
51476;DHT22;37554;50.362;7.568;2023-08-20T10:17:42;30.80;62.60
51476;DHT22;37554;50.362;7.568;2023-08-20T10:20:09;30.90;62.70
51476;DHT22;37554;50.362;7.568;2023-08-20T10:22:39;30.90;62.50
51476;DHT22;37554;50.362;7.568;2023-08-20T10:25:10;31.00;62.60
51476;DHT22;37554;50.362;7.568;2023-08-20T10:27:38;31.20;62.50
51476;DHT22;37554;50.362;7.568;2023-08-20T10:30:13;31.30;61.50
51476;DHT22;37554;50.362;7.568;2023-08-20T10:35:18;31.60;61.20
51476;DHT22;37554;50.362;7.568;2023-08-20T10:40:53;31.90;58.20
51476;DHT22;37554;50.362;7.568;2023-08-20T10:43:47;32.00;57.20
51476;DHT22;37554;50.362;7.568;2023-08-20T10:46:20;32.20;56.80
51476;DHT22;37554;50.362;7.568;2023-08-20T10:48:54;32.20;56.70
51476;DHT22;37554;50.362;7.568;2023-08-20T10:56:43;32.60;54.80
51476;DHT22;37554;50.362;7.568;2023-08-20T10:59:22;32.80;54.00
51476;DHT22;37554;50.362;7.568;2023-08-20T11:01:52;33.00;52.70
51476;DHT22;37554;50.362;7.568;2023-08-20T11:04:20;33.40;52.60
51476;DHT22;37554;50.362;7.568;2023-08-20T11:06:46;33.70;52.00
51476;DHT22;37554;50.362;7.568;2023-08-20T11:09:15;34.00;51.20
51476;DHT22;37554;50.362;7.568;2023-08-20T11:11:41;34.30;50.50
51476;DHT22;37554;50.362;7.568;2023-08-20T11:14:14;34.60;49.90
51476;DHT22;37554;50.362;7.568;2023-08-20T11:16:42;34.90;49.20
51476;DHT22;37554;50.362;7.568;2023-08-20T11:19:09;35.00;48.50
51476;DHT22;37554;50.362;7.568;2023-08-20T11:21:35;35.10;47.90
51476;DHT22;37554;50.362;7.568;2023-08-20T11:24:02;35.10;47.60
51476;DHT22;37554;50.362;7.568;2023-08-20T11:26:30;35.30;47.20
51476;DHT22;37554;50.362;7.568;2023-08-20T11:28:55;35.50;47.00
51476;DHT22;37554;50.362;7.568;2023-08-20T11:31:22;35.80;47.00
51476;DHT22;37554;50.362;7.568;2023-08-20T11:33:49;36.20;46.30
51476;DHT22;37554;50.362;7.568;2023-08-20T11:36:16;36.40;46.10
51476;DHT22;37554;50.362;7.568;2023-08-20T11:38:53;36.70;45.60
51476;DHT22;37554;50.362;7.568;2023-08-20T11:41:20;36.80;45.20
51476;DHT22;37554;50.362;7.568;2023-08-20T11:43:47;36.90;45.20
51476;DHT22;37554;50.362;7.568;2023-08-20T11:46:13;37.20;45.00
51476;DHT22;37554;50.362;7.568;2023-08-20T11:51:24;37.20;43.80
51476;DHT22;37554;50.362;7.568;2023-08-20T11:53:49;37.20;43.90
51476;DHT22;37554;50.362;7.568;2023-08-20T11:56:15;37.20;43.70
51476;DHT22;37554;50.362;7.568;2023-08-20T11:58:41;37.10;43.60
51476;DHT22;37554;50.362;7.568;2023-08-20T12:01:10;36.90;44.20
51476;DHT22;37554;50.362;7.568;2023-08-20T12:03:38;36.70;43.90
51476;DHT22;37554;50.362;7.568;2023-08-20T12:06:21;36.50;44.50
51476;DHT22;37554;50.362;7.568;2023-08-20T12:08:48;36.40;45.00
51476;DHT22;37554;50.362;7.568;2023-08-20T12:11:14;36.30;45.70
51476;DHT22;37554;50.362;7.568;2023-08-20T12:13:40;36.20;46.20
51476;DHT22;37554;50.362;7.568;2023-08-20T12:16:06;36.00;46.40
51476;DHT22;37554;50.362;7.568;2023-08-20T12:18:32;35.90;46.20
51476;DHT22;37554;50.362;7.568;2023-08-20T12:20:58;35.80;46.30
51476;DHT22;37554;50.362;7.568;2023-08-20T12:23:23;35.80;47.00
51476;DHT22;37554;50.362;7.568;2023-08-20T12:25:52;35.90;47.70
51476;DHT22;37554;50.362;7.568;2023-08-20T12:28:18;36.00;47.90
51476;DHT22;37554;50.362;7.568;2023-08-20T12:30:43;36.10;48.50
51476;DHT22;37554;50.362;7.568;2023-08-20T12:33:09;36.10;49.20
51476;DHT22;37554;50.362;7.568;2023-08-20T12:35:36;36.20;48.40
51476;DHT22;37554;50.362;7.568;2023-08-20T12:38:03;36.20;48.10
51476;DHT22;37554;50.362;7.568;2023-08-20T12:40:29;36.20;48.70
51476;DHT22;37554;50.362;7.568;2023-08-20T12:42:55;36.20;47.70
51476;DHT22;37554;50.362;7.568;2023-08-20T12:45:21;36.30;47.10
51476;DHT22;37554;50.362;7.568;2023-08-20T12:47:47;36.30;46.70
51476;DHT22;37554;50.362;7.568;2023-08-20T12:50:12;36.30;47.00
51476;DHT22;37554;50.362;7.568;2023-08-20T12:52:40;36.50;46.50
51476;DHT22;37554;50.362;7.568;2023-08-20T12:55:06;36.50;45.70
51476;DHT22;37554;50.362;7.568;2023-08-20T12:57:34;36.30;45.60
51476;DHT22;37554;50.362;7.568;2023-08-20T13:00:02;36.10;45.70
51476;DHT22;37554;50.362;7.568;2023-08-20T13:02:33;35.90;46.30
51476;DHT22;37554;50.362;7.568;2023-08-20T13:04:59;36.00;46.60
51476;DHT22;37554;50.362;7.568;2023-08-20T13:07:25;36.20;45.80
51476;DHT22;37554;50.362;7.568;2023-08-20T13:09:51;36.30;45.60
51476;DHT22;37554;50.362;7.568;2023-08-20T13:12:18;36.30;45.20
51476;DHT22;37554;50.362;7.568;2023-08-20T13:14:48;36.30;44.70
51476;DHT22;37554;50.362;7.568;2023-08-20T13:17:14;36.30;45.00
51476;DHT22;37554;50.362;7.568;2023-08-20T13:19:40;36.30;45.20
51476;DHT22;37554;50.362;7.568;2023-08-20T13:22:06;36.30;45.20
51476;DHT22;37554;50.362;7.568;2023-08-20T13:24:32;36.30;44.30
51476;DHT22;37554;50.362;7.568;2023-08-20T13:26:58;36.30;44.70
51476;DHT22;37554;50.362;7.568;2023-08-20T13:29:24;36.30;45.00
51476;DHT22;37554;50.362;7.568;2023-08-20T13:31:50;36.30;45.10
51476;DHT22;37554;50.362;7.568;2023-08-20T13:34:17;36.30;44.60
51476;DHT22;37554;50.362;7.568;2023-08-20T13:36:43;36.20;44.30
51476;DHT22;37554;50.362;7.568;2023-08-20T13:39:09;36.10;43.80
51476;DHT22;37554;50.362;7.568;2023-08-20T13:41:37;36.10;43.80
51476;DHT22;37554;50.362;7.568;2023-08-20T13:44:03;36.10;44.10
51476;DHT22;37554;50.362;7.568;2023-08-20T13:46:29;36.10;43.90
51476;DHT22;37554;50.362;7.568;2023-08-20T13:48:55;36.10;44.00
51476;DHT22;37554;50.362;7.568;2023-08-20T13:51:21;36.10;43.70
51476;DHT22;37554;50.362;7.568;2023-08-20T13:53:47;36.20;43.70
51476;DHT22;37554;50.362;7.568;2023-08-20T13:56:13;36.20;43.50
51476;DHT22;37554;50.362;7.568;2023-08-20T13:58:39;36.20;43.90
51476;DHT22;37554;50.362;7.568;2023-08-20T14:01:04;36.20;43.50
51476;DHT22;37554;50.362;7.568;2023-08-20T14:03:31;36.20;42.90
51476;DHT22;37554;50.362;7.568;2023-08-20T14:05:56;36.20;42.00
51476;DHT22;37554;50.362;7.568;2023-08-20T14:08:22;36.10;41.80
51476;DHT22;37554;50.362;7.568;2023-08-20T14:10:48;36.10;42.00
51476;DHT22;37554;50.362;7.568;2023-08-20T14:13:13;36.10;42.30
51476;DHT22;37554;50.362;7.568;2023-08-20T14:15:39;36.10;42.90
51476;DHT22;37554;50.362;7.568;2023-08-20T14:18:05;36.30;43.30
51476;DHT22;37554;50.362;7.568;2023-08-20T14:20:33;36.30;42.80
51476;DHT22;37554;50.362;7.568;2023-08-20T14:22:59;36.30;42.70
51476;DHT22;37554;50.362;7.568;2023-08-20T14:25:24;36.20;42.40
51476;DHT22;37554;50.362;7.568;2023-08-20T14:27:50;35.80;42.00
51476;DHT22;37554;50.362;7.568;2023-08-20T14:30:16;35.70;42.20
51476;DHT22;37554;50.362;7.568;2023-08-20T14:32:41;35.70;42.30
51476;DHT22;37554;50.362;7.568;2023-08-20T14:35:08;35.70;42.40
51476;DHT22;37554;50.362;7.568;2023-08-20T14:37:34;35.70;42.80
51476;DHT22;37554;50.362;7.568;2023-08-20T14:40:00;35.60;43.00
51476;DHT22;37554;50.362;7.568;2023-08-20T14:42:26;35.70;43.20
51476;DHT22;37554;50.362;7.568;2023-08-20T14:44:51;35.70;43.40
51476;DHT22;37554;50.362;7.568;2023-08-20T14:47:19;35.60;43.20
51476;DHT22;37554;50.362;7.568;2023-08-20T14:49:45;35.50;43.40
51476;DHT22;37554;50.362;7.568;2023-08-20T14:52:10;35.50;43.40
51476;DHT22;37554;50.362;7.568;2023-08-20T14:54:36;35.40;43.10
51476;DHT22;37554;50.362;7.568;2023-08-20T14:57:01;35.30;43.40
51476;DHT22;37554;50.362;7.568;2023-08-20T14:59:27;35.20;44.20
51476;DHT22;37554;50.362;7.568;2023-08-20T15:01:53;35.00;45.70
51476;DHT22;37554;50.362;7.568;2023-08-20T15:04:19;34.80;47.20
51476;DHT22;37554;50.362;7.568;2023-08-20T15:06:45;34.60;47.10
51476;DHT22;37554;50.362;7.568;2023-08-20T15:09:10;34.50;47.80
51476;DHT22;37554;50.362;7.568;2023-08-20T15:11:41;34.40;48.00
51476;DHT22;37554;50.362;7.568;2023-08-20T15:14:07;34.20;47.70
51476;DHT22;37554;50.362;7.568;2023-08-20T15:16:33;34.10;47.40
51476;DHT22;37554;50.362;7.568;2023-08-20T15:18:58;34.00;47.80
51476;DHT22;37554;50.362;7.568;2023-08-20T15:21:24;33.90;47.60
51476;DHT22;37554;50.362;7.568;2023-08-20T15:23:50;33.80;47.90
51476;DHT22;37554;50.362;7.568;2023-08-20T15:26:15;33.80;48.00
51476;DHT22;37554;50.362;7.568;2023-08-20T15:28:41;33.70;47.70
51476;DHT22;37554;50.362;7.568;2023-08-20T15:31:06;33.60;47.90
51476;DHT22;37554;50.362;7.568;2023-08-20T15:33:32;33.50;47.90
51476;DHT22;37554;50.362;7.568;2023-08-20T15:35:58;33.50;48.00
51476;DHT22;37554;50.362;7.568;2023-08-20T15:38:25;33.40;48.30
51476;DHT22;37554;50.362;7.568;2023-08-20T15:40:50;33.30;48.50
51476;DHT22;37554;50.362;7.568;2023-08-20T15:43:16;33.20;49.40
51476;DHT22;37554;50.362;7.568;2023-08-20T15:45:42;33.20;49.50
51476;DHT22;37554;50.362;7.568;2023-08-20T15:48:07;33.10;49.70